createdAt,value
2023-03-29T00:01:52.262Z,0.30
2023-03-29T00:04:22.509Z,0.20
2023-03-29T00:06:50.700Z,0.30
2023-03-29T00:09:18.436Z,0.28
2023-03-29T00:11:45.231Z,0.20
2023-03-29T00:14:13.096Z,0.20
2023-03-29T00:16:40.183Z,0.30
2023-03-29T00:19:06.965Z,0.20
2023-03-29T00:21:33.688Z,0.20
2023-03-29T00:24:00.751Z,0.20
2023-03-29T00:26:27.428Z,0.25
2023-03-29T00:28:54.247Z,0.20
2023-03-29T00:31:21.431Z,0.20
2023-03-29T00:33:48.260Z,0.20
2023-03-29T00:36:16.202Z,0.30
2023-03-29T00:38:43.015Z,0.20
2023-03-29T00:41:10.794Z,0.20
2023-03-29T00:43:58.055Z,0.22
2023-03-29T00:46:26.208Z,0.20
2023-03-29T00:48:56.101Z,0.30
2023-03-29T00:51:25.621Z,0.30
2023-03-29T00:53:56.955Z,0.28
2023-03-29T00:56:27.815Z,0.20
2023-03-29T00:59:05.528Z,0.20
2023-03-29T01:01:55.247Z,0.20
2023-03-29T01:05:07.310Z,0.20
2023-03-29T01:07:43.124Z,0.30
2023-03-29T01:10:17.373Z,0.20
2023-03-29T01:12:48.936Z,0.25
2023-03-29T01:15:21.363Z,0.20
2023-03-29T01:17:50.977Z,0.20
2023-03-29T01:20:42.399Z,0.30
2023-03-29T01:23:32.490Z,0.30
2023-03-29T01:26:19.862Z,0.20
2023-03-29T01:29:03.294Z,0.20
2023-03-29T01:31:39.405Z,0.20
2023-03-29T01:34:12.865Z,0.20
2023-03-29T01:37:00.405Z,0.20
2023-03-29T01:39:27.438Z,0.20
2023-03-29T01:42:13.032Z,0.30
2023-03-29T01:45:07.555Z,0.20
2023-03-29T01:47:41.037Z,0.20
2023-03-29T01:50:32.896Z,0.20
2023-03-29T01:53:06.249Z,0.20
2023-03-29T01:55:40.355Z,0.20
2023-03-29T01:58:09.863Z,0.28
2023-03-29T02:00:39.920Z,0.28
2023-03-29T02:03:09.420Z,0.20
2023-03-29T02:05:38.646Z,0.28
2023-03-29T02:08:08.983Z,0.20
2023-03-29T02:10:37.031Z,0.20
2023-03-29T02:13:05.641Z,0.20
2023-03-29T02:15:33.312Z,0.20
2023-03-29T02:18:00.135Z,0.20
2023-03-29T02:20:32.348Z,0.20
2023-03-29T02:23:06.144Z,0.30
2023-03-29T02:25:33.252Z,0.20
2023-03-29T02:28:01.091Z,0.30
2023-03-29T02:30:42.513Z,0.20
2023-03-29T02:33:25.382Z,0.30
2023-03-29T02:35:59.262Z,0.20
2023-03-29T02:38:28.040Z,0.20
2023-03-29T02:40:56.767Z,0.25
2023-03-29T02:43:25.894Z,0.22
2023-03-29T02:45:53.705Z,0.22
2023-03-29T02:48:24.325Z,0.30
2023-03-29T02:50:54.862Z,0.20
2023-03-29T02:53:30.568Z,0.20
2023-03-29T02:55:57.983Z,0.20
2023-03-29T02:58:26.786Z,0.30
2023-03-29T03:00:53.929Z,0.20
2023-03-29T03:03:21.025Z,0.20
2023-03-29T03:05:49.496Z,0.30
2023-03-29T03:08:16.371Z,0.20
2023-03-29T03:10:43.320Z,0.20
2023-03-29T03:13:10.182Z,0.20
2023-03-29T03:15:37.591Z,0.20
2023-03-29T03:18:04.547Z,0.20
2023-03-29T03:20:32.223Z,0.20
2023-03-29T03:22:59.056Z,0.30
2023-03-29T03:25:25.846Z,0.20
2023-03-29T03:27:53.337Z,0.20
2023-03-29T03:30:23.088Z,0.30
2023-03-29T03:33:09.833Z,0.20
2023-03-29T03:36:02.926Z,0.30
2023-03-29T03:38:31.205Z,0.30
2023-03-29T03:41:01.291Z,0.20
2023-03-29T03:43:32.081Z,0.20
2023-03-29T03:45:58.994Z,0.20
2023-03-29T03:48:26.096Z,0.20
2023-03-29T03:51:08.841Z,0.20
2023-03-29T03:53:36.060Z,0.20
2023-03-29T03:56:15.182Z,0.20
2023-03-29T03:59:09.467Z,0.20
2023-03-29T04:01:49.950Z,0.20
2023-03-29T04:04:20.459Z,0.20
2023-03-29T04:07:04.153Z,0.20
2023-03-29T04:09:31.763Z,0.20
2023-03-29T04:12:12.907Z,0.20
2023-03-29T04:14:41.308Z,0.20
2023-03-29T04:17:16.836Z,0.20
2023-03-29T04:22:17.826Z,0.20
2023-03-29T04:24:44.557Z,0.20
2023-03-29T04:27:29.676Z,0.20
2023-03-29T04:29:57.356Z,0.30
2023-03-29T04:32:47.458Z,0.30
2023-03-29T04:35:14.283Z,0.20
2023-03-29T04:37:42.053Z,0.22
2023-03-29T04:40:15.170Z,0.20
2023-03-29T04:43:02.640Z,0.20
2023-03-29T04:45:29.965Z,0.20
2023-03-29T04:48:07.023Z,0.20
2023-03-29T04:50:36.359Z,0.20
2023-03-29T04:53:03.765Z,0.20
2023-03-29T04:55:30.746Z,0.20
2023-03-29T04:58:01.401Z,0.20
2023-03-29T05:00:31.854Z,0.10
2023-03-29T05:03:16.956Z,0.20
2023-03-29T05:05:53.496Z,0.20
2023-03-29T05:08:21.414Z,0.20
2023-03-29T05:11:11.829Z,0.20
2023-03-29T05:13:38.572Z,0.17
2023-03-29T05:16:05.769Z,0.13
2023-03-29T05:18:32.888Z,0.20
2023-03-29T05:21:00.398Z,0.30
2023-03-29T05:23:29.063Z,0.20
2023-03-29T05:26:18.920Z,0.20
2023-03-29T05:28:50.955Z,0.20
2023-03-29T05:31:18.076Z,0.20
2023-03-29T05:33:48.735Z,0.20
2023-03-29T05:36:18.962Z,0.20
2023-03-29T05:38:49.372Z,0.20
2023-03-29T05:41:18.090Z,0.20
2023-03-29T05:44:17.213Z,0.20
2023-03-29T05:46:47.273Z,0.20
2023-03-29T05:49:16.750Z,0.20
2023-03-29T05:51:58.668Z,0.20
2023-03-29T05:54:27.393Z,0.20
2023-03-29T05:56:54.281Z,0.20
2023-03-29T05:59:21.297Z,0.20
2023-03-29T06:01:49.377Z,0.20
2023-03-29T06:04:19.682Z,0.20
2023-03-29T06:06:57.822Z,0.20
2023-03-29T06:09:25.930Z,0.20
2023-03-29T06:12:01.978Z,0.20
2023-03-29T06:14:51.748Z,0.20
2023-03-29T06:17:41.020Z,0.20
2023-03-29T06:20:11.992Z,0.20
2023-03-29T06:22:42.709Z,0.10
2023-03-29T06:25:12.566Z,0.10
2023-03-29T06:27:40.548Z,0.20
2023-03-29T06:30:08.208Z,0.20
2023-03-29T06:32:36.800Z,0.20
2023-03-29T06:35:08.851Z,0.20
2023-03-29T06:37:41.812Z,0.20
2023-03-29T06:40:17.834Z,0.10
2023-03-29T06:42:46.246Z,0.10
2023-03-29T06:45:38.010Z,0.20
2023-03-29T06:48:11.614Z,0.20
2023-03-29T06:50:38.383Z,0.30
2023-03-29T06:53:14.302Z,0.10
2023-03-29T06:55:42.834Z,0.20
2023-03-29T06:58:48.780Z,0.20
2023-03-29T07:01:38.161Z,0.15
2023-03-29T07:04:25.279Z,0.20
2023-03-29T07:07:20.109Z,0.20
2023-03-29T07:09:54.375Z,0.20
2023-03-29T07:12:56.713Z,0.20
2023-03-29T07:15:23.925Z,0.20
2023-03-29T07:18:09.669Z,0.10
2023-03-29T07:20:39.079Z,0.10
2023-03-29T07:23:08.238Z,0.20
2023-03-29T07:25:35.645Z,0.10
2023-03-29T07:28:02.866Z,0.10
2023-03-29T07:30:32.460Z,0.20
2023-03-29T07:33:13.097Z,0.20
2023-03-29T07:35:48.075Z,0.20
2023-03-29T07:38:15.850Z,0.20
2023-03-29T07:40:48.124Z,0.10
2023-03-29T07:43:34.597Z,0.10
2023-03-29T07:46:06.764Z,0.10
2023-03-29T07:48:37.268Z,0.20
2023-03-29T07:51:07.348Z,0.20
2023-03-29T07:53:45.092Z,0.10
2023-03-29T07:56:33.124Z,0.20
2023-03-29T07:59:15.230Z,0.10
2023-03-29T08:01:44.837Z,0.20
2023-03-29T08:04:23.783Z,0.10
2023-03-29T08:07:09.514Z,0.20
2023-03-29T08:10:04.658Z,0.17
2023-03-29T08:12:54.251Z,0.10
2023-03-29T08:15:28.294Z,0.20
2023-03-29T08:17:55.166Z,0.10
2023-03-29T08:20:22.420Z,0.10
2023-03-29T08:22:52.138Z,0.10
2023-03-29T08:25:38.798Z,0.10
2023-03-29T08:28:06.199Z,0.10
2023-03-29T08:30:46.629Z,0.20
2023-03-29T08:33:13.410Z,0.10
2023-03-29T08:35:41.532Z,0.13
2023-03-29T08:38:24.819Z,0.10
2023-03-29T08:40:52.042Z,0.10
2023-03-29T08:43:19.502Z,0.10
2023-03-29T08:46:18.930Z,0.10
2023-03-29T08:48:51.513Z,0.10
2023-03-29T08:51:26.180Z,0.10
2023-03-29T08:53:59.128Z,0.10
2023-03-29T08:56:54.466Z,0.10
2023-03-29T08:59:33.412Z,0.10
2023-03-29T09:02:05.861Z,0.10
2023-03-29T09:04:36.681Z,0.10
2023-03-29T09:07:26.397Z,0.10
2023-03-29T09:09:54.966Z,0.10
2023-03-29T09:12:43.109Z,0.10
2023-03-29T09:18:06.460Z,0.10
2023-03-29T09:20:45.050Z,0.10
2023-03-29T09:23:15.297Z,0.10
2023-03-29T09:26:20.994Z,0.10
2023-03-29T09:29:04.424Z,0.10
2023-03-29T09:31:37.415Z,0.10
2023-03-29T09:34:14.453Z,0.10
2023-03-29T09:37:08.245Z,0.00
2023-03-29T09:39:38.033Z,0.10
2023-03-29T09:42:12.847Z,0.10
2023-03-29T09:44:51.114Z,0.10
2023-03-29T09:47:27.542Z,0.10
2023-03-29T09:50:23.068Z,0.10
2023-03-29T09:52:56.950Z,0.10
2023-03-29T09:55:28.595Z,0.10
2023-03-29T09:58:12.325Z,0.00
2023-03-29T10:00:43.016Z,0.10
2023-03-29T10:03:10.852Z,0.10
2023-03-29T10:05:53.315Z,0.10
2023-03-29T10:08:27.922Z,0.10
2023-03-29T10:10:58.746Z,0.10
2023-03-29T10:13:31.226Z,0.00
2023-03-29T10:16:17.295Z,0.10
2023-03-29T10:18:44.048Z,0.00
2023-03-29T10:21:21.059Z,0.00
2023-03-29T10:23:49.590Z,0.00
2023-03-29T10:26:33.153Z,0.10
2023-03-29T10:29:02.939Z,0.10
2023-03-29T10:31:33.880Z,0.03
2023-03-29T10:34:06.576Z,0.03
2023-03-29T10:36:33.523Z,0.00
2023-03-29T10:39:05.598Z,0.00
2023-03-29T10:41:35.075Z,0.00
2023-03-29T10:44:02.531Z,0.00
2023-03-29T10:46:30.777Z,0.00
2023-03-29T10:49:06.120Z,0.00
2023-03-29T10:51:34.547Z,0.00
2023-03-29T10:54:02.361Z,0.00
2023-03-29T10:56:43.238Z,0.00
2023-03-29T10:59:22.981Z,0.00
2023-03-29T11:02:14.669Z,0.00
2023-03-29T11:04:47.302Z,0.00
2023-03-29T11:07:25.203Z,0.00
2023-03-29T11:10:29.183Z,0.00
2023-03-29T11:13:24.898Z,0.00
2023-03-29T11:15:51.709Z,0.00
2023-03-29T11:19:08.969Z,0.00
2023-03-29T11:22:10.061Z,0.00
2023-03-29T11:24:39.451Z,0.00
2023-03-29T11:27:22.649Z,0.00
2023-03-29T11:29:52.950Z,0.00
2023-03-29T11:32:45.181Z,0.00
2023-03-29T11:35:17.773Z,0.00
2023-03-29T11:38:22.994Z,0.00
2023-03-29T11:41:01.692Z,0.00
2023-03-29T11:44:03.422Z,0.00
2023-03-29T11:46:38.123Z,0.00
2023-03-29T11:49:20.240Z,0.00
2023-03-29T11:51:47.150Z,0.00
2023-03-29T11:54:20.882Z,0.00
2023-03-29T11:56:55.143Z,0.00
2023-03-29T11:59:27.386Z,0.00
2023-03-29T12:02:21.324Z,0.00
2023-03-29T12:04:54.034Z,0.00
2023-03-29T12:07:23.736Z,0.00
2023-03-29T12:09:58.996Z,0.00
2023-03-29T12:12:46.638Z,0.00
2023-03-29T12:15:20.654Z,0.00
2023-03-29T12:18:11.572Z,0.00
2023-03-29T12:20:40.716Z,0.00
2023-03-29T12:23:14.547Z,0.00
2023-03-29T12:25:52.326Z,0.00
2023-03-29T12:28:43.392Z,0.00
2023-03-29T12:31:32.813Z,0.00
2023-03-29T12:34:50.421Z,0.00
2023-03-29T12:38:26.723Z,0.00
2023-03-29T12:41:19.272Z,0.00
2023-03-29T12:44:05.088Z,0.00
2023-03-29T12:46:54.849Z,0.00
2023-03-29T12:49:28.263Z,0.00
2023-03-29T12:51:58.027Z,0.00
2023-03-29T12:54:32.230Z,0.00
2023-03-29T12:57:20.536Z,0.00
2023-03-29T12:59:49.635Z,0.00
2023-03-29T13:02:17.907Z,0.00
2023-03-29T13:04:55.245Z,0.00
2023-03-29T13:07:22.380Z,0.00
2023-03-29T13:09:52.035Z,0.00
2023-03-29T13:12:42.458Z,0.00
2023-03-29T13:15:14.990Z,0.00
2023-03-29T13:18:19.324Z,0.00
2023-03-29T13:20:48.004Z,0.00
2023-03-29T13:23:56.363Z,0.00
2023-03-29T13:26:46.094Z,0.00
2023-03-29T13:29:24.137Z,0.00
2023-03-29T13:32:15.038Z,0.00
2023-03-29T13:34:49.388Z,0.00
2023-03-29T13:37:25.669Z,0.00
2023-03-29T13:39:54.496Z,0.00
2023-03-29T13:42:33.167Z,0.00
2023-03-29T13:45:23.921Z,0.00
2023-03-29T13:48:23.897Z,0.00
2023-03-29T13:51:01.809Z,0.00
2023-03-29T13:53:33.264Z,0.00
2023-03-29T13:56:00.720Z,0.00
2023-03-29T13:58:34.341Z,0.00
2023-03-29T14:01:28.407Z,0.00
2023-03-29T14:03:57.060Z,0.00
2023-03-29T14:06:29.421Z,0.00
2023-03-29T14:08:56.704Z,0.00
2023-03-29T14:11:26.809Z,0.00
2023-03-29T14:13:55.499Z,0.00
2023-03-29T14:16:22.557Z,0.00
2023-03-29T14:18:51.496Z,0.00
2023-03-29T14:21:21.285Z,0.00
2023-03-29T14:23:55.318Z,0.00
2023-03-29T14:26:24.239Z,0.00
2023-03-29T14:28:56.814Z,0.00
2023-03-29T14:31:25.430Z,0.00
2023-03-29T14:33:57.691Z,0.00
2023-03-29T14:36:26.731Z,0.00
2023-03-29T14:38:58.196Z,0.00
2023-03-29T14:41:30.664Z,0.00
2023-03-29T14:43:58.621Z,0.00
2023-03-29T14:46:25.905Z,0.00
2023-03-29T14:48:53.654Z,0.00
2023-03-29T14:51:21.082Z,0.00
2023-03-29T14:53:48.987Z,0.00
2023-03-29T14:56:18.294Z,0.00
2023-03-29T14:58:49.561Z,0.00
2023-03-29T15:01:18.698Z,0.00
2023-03-29T15:03:55.197Z,0.00
2023-03-29T15:06:24.229Z,0.00
2023-03-29T15:09:03.762Z,0.00
2023-03-29T15:11:34.293Z,0.00
2023-03-29T15:14:08.683Z,0.00
2023-03-29T15:16:41.869Z,0.00
2023-03-29T15:19:15.528Z,0.00
2023-03-29T15:21:43.411Z,0.00
2023-03-29T15:24:44.729Z,0.00
2023-03-29T15:27:15.690Z,0.00
2023-03-29T15:29:43.913Z,0.00
2023-03-29T15:32:21.899Z,0.00
2023-03-29T15:34:59.236Z,0.00
2023-03-29T15:37:26.421Z,0.00
2023-03-29T15:39:53.333Z,0.00
2023-03-29T15:42:21.146Z,0.00
2023-03-29T15:44:47.882Z,0.00
2023-03-29T15:47:14.688Z,0.00
2023-03-29T15:49:41.329Z,0.00
2023-03-29T15:52:08.721Z,0.00
2023-03-29T15:54:37.325Z,0.00
2023-03-29T15:57:07.444Z,0.00
2023-03-29T15:59:34.958Z,0.00
2023-03-29T16:02:01.982Z,0.00
2023-03-29T16:04:28.799Z,0.00
2023-03-29T16:06:58.727Z,0.00
2023-03-29T16:09:27.706Z,0.00
2023-03-29T16:11:54.495Z,0.00
2023-03-29T16:14:23.297Z,0.00
2023-03-29T16:16:53.820Z,0.00
2023-03-29T16:19:20.645Z,0.00
2023-03-29T16:21:49.309Z,0.00
2023-03-29T16:24:19.751Z,0.00
2023-03-29T16:26:46.875Z,0.00
2023-03-29T16:29:13.759Z,0.00
2023-03-29T16:31:40.592Z,0.00
2023-03-29T16:34:09.491Z,0.00
2023-03-29T16:36:36.192Z,0.00
2023-03-29T16:39:03.235Z,0.00
2023-03-29T16:41:30.038Z,0.00
2023-03-29T16:43:56.792Z,0.00
2023-03-29T16:46:24.053Z,0.00
2023-03-29T16:48:51.624Z,0.00
2023-03-29T16:51:18.376Z,0.00
2023-03-29T16:53:45.073Z,0.00
2023-03-29T16:56:11.963Z,0.00
2023-03-29T16:58:39.387Z,0.00
2023-03-29T17:01:16.927Z,0.00
2023-03-29T17:03:44.025Z,0.00
2023-03-29T17:06:11.912Z,0.00
2023-03-29T17:08:39.092Z,0.00
2023-03-29T17:11:07.327Z,0.00
2023-03-29T17:13:34.106Z,0.00
2023-03-29T17:16:01.517Z,0.00
2023-03-29T17:18:28.654Z,0.00
2023-03-29T17:20:57.707Z,0.00
2023-03-29T17:23:25.530Z,0.00
2023-03-29T17:25:54.760Z,0.00
2023-03-29T17:28:22.121Z,0.00
2023-03-29T17:30:49.151Z,0.00
2023-03-29T17:33:15.970Z,0.00
2023-03-29T17:35:45.799Z,0.00
2023-03-29T17:38:12.484Z,0.00
2023-03-29T17:40:39.486Z,0.00
2023-03-29T17:43:06.222Z,0.00
2023-03-29T17:45:33.248Z,0.00
2023-03-29T17:47:59.993Z,0.00
2023-03-29T17:50:27.226Z,0.00
2023-03-29T17:52:54.155Z,0.00
2023-03-29T17:55:21.213Z,0.00
2023-03-29T17:57:49.143Z,0.00
2023-03-29T18:00:17.007Z,0.00
2023-03-29T18:02:44.262Z,0.00
2023-03-29T18:05:11.355Z,0.00
2023-03-29T18:07:38.326Z,0.00
2023-03-29T18:10:06.522Z,0.00
2023-03-29T18:12:33.285Z,0.00
2023-03-29T18:15:00.154Z,0.00
2023-03-29T18:17:27.799Z,0.00
2023-03-29T18:19:54.828Z,0.00
2023-03-29T18:22:21.853Z,0.00
2023-03-29T18:24:49.321Z,0.00
2023-03-29T18:27:16.159Z,0.00
2023-03-29T18:29:44.834Z,0.00
2023-03-29T18:32:11.925Z,0.00
2023-03-29T18:34:39.479Z,0.00
2023-03-29T18:37:06.357Z,0.00
2023-03-29T18:39:34.877Z,0.00
2023-03-29T18:42:02.291Z,0.00
2023-03-29T18:44:29.404Z,0.00
2023-03-29T18:46:56.500Z,0.00
2023-03-29T18:49:25.131Z,0.00
2023-03-29T18:51:52.122Z,0.00
2023-03-29T18:54:18.982Z,0.00
2023-03-29T18:56:45.847Z,0.00
2023-03-29T18:59:12.810Z,0.00
2023-03-29T19:01:39.635Z,0.00
2023-03-29T19:04:06.462Z,0.00
2023-03-29T19:06:33.247Z,0.00
2023-03-29T19:09:02.256Z,0.00
2023-03-29T19:11:30.132Z,0.00
2023-03-29T19:13:56.848Z,0.00
2023-03-29T19:16:23.920Z,0.00
2023-03-29T19:18:50.677Z,0.00
2023-03-29T19:21:17.408Z,0.00
2023-03-29T19:23:44.149Z,0.00
2023-03-29T19:26:11.694Z,0.00
2023-03-29T19:28:38.519Z,0.00
2023-03-29T19:31:05.544Z,0.00
2023-03-29T19:33:32.499Z,0.00
2023-03-29T19:35:59.398Z,0.00
2023-03-29T19:38:26.202Z,0.00
2023-03-29T19:40:53.122Z,0.00
2023-03-29T19:43:20.838Z,0.00
2023-03-29T19:45:49.438Z,0.10
2023-03-29T19:48:22.556Z,0.00
2023-03-29T19:50:50.772Z,0.00
2023-03-29T19:53:17.541Z,0.00
2023-03-29T19:55:45.539Z,0.00
2023-03-29T19:58:12.637Z,0.00
2023-03-29T20:00:39.685Z,0.00
2023-03-29T20:03:10.086Z,0.00
2023-03-29T20:05:38.893Z,0.00
2023-03-29T20:08:06.653Z,0.00
2023-03-29T20:10:34.418Z,0.00
2023-03-29T20:13:02.486Z,0.00
2023-03-29T20:15:29.246Z,0.00
2023-03-29T20:17:59.285Z,0.00
2023-03-29T20:20:27.592Z,0.00
2023-03-29T20:22:58.357Z,0.10
2023-03-29T20:25:26.019Z,0.00
2023-03-29T20:27:53.443Z,0.00
2023-03-29T20:30:20.837Z,0.00
2023-03-29T20:32:47.668Z,0.00
2023-03-29T20:35:14.436Z,0.00
2023-03-29T20:37:41.343Z,0.10
2023-03-29T20:40:08.934Z,0.00
2023-03-29T20:42:38.352Z,0.10
2023-03-29T20:45:05.786Z,0.00
2023-03-29T20:47:32.535Z,0.00
2023-03-29T20:50:04.390Z,0.00
2023-03-29T20:52:31.065Z,0.00
2023-03-29T20:54:59.366Z,0.00
2023-03-29T20:57:28.074Z,0.00
2023-03-29T20:59:56.640Z,0.10
2023-03-29T21:02:23.404Z,0.00
2023-03-29T21:04:52.088Z,0.00
2023-03-29T21:07:20.356Z,0.00
2023-03-29T21:09:50.591Z,0.00
2023-03-29T21:12:17.688Z,0.00
2023-03-29T21:14:44.886Z,0.10
2023-03-29T21:17:11.632Z,0.00
2023-03-29T21:19:39.547Z,0.00
2023-03-29T21:22:06.507Z,0.10
2023-03-29T21:24:33.917Z,0.00
2023-03-29T21:27:00.762Z,0.03
2023-03-29T21:29:28.206Z,0.00
2023-03-29T21:31:55.204Z,0.00
2023-03-29T21:34:22.527Z,0.00
2023-03-29T21:36:49.599Z,0.03
2023-03-29T21:39:16.429Z,0.00
2023-03-29T21:41:43.326Z,0.10
2023-03-29T21:44:10.049Z,0.00
2023-03-29T21:46:36.742Z,0.03
2023-03-29T21:49:03.523Z,0.00
2023-03-29T21:51:30.226Z,0.00
2023-03-29T21:53:57.035Z,0.00
2023-03-29T21:56:23.750Z,0.10
2023-03-29T21:58:50.467Z,0.08
2023-03-29T22:01:17.242Z,0.00
2023-03-29T22:03:44.403Z,0.00
2023-03-29T22:06:13.767Z,0.00
2023-03-29T22:08:40.772Z,0.00
2023-03-29T22:11:14.398Z,0.00
2023-03-29T22:13:42.721Z,0.00
2023-03-29T22:16:14.100Z,0.00
2023-03-29T22:18:43.907Z,0.10
2023-03-29T22:21:32.696Z,0.00
2023-03-29T22:24:01.426Z,0.10
2023-03-29T22:26:30.703Z,0.00
2023-03-29T22:28:59.025Z,0.00
2023-03-29T22:31:27.358Z,0.00
2023-03-29T22:33:54.574Z,0.00
2023-03-29T22:36:27.072Z,0.00
2023-03-29T22:38:54.845Z,0.00
2023-03-29T22:41:23.875Z,0.10
2023-03-29T22:43:56.252Z,0.03
2023-03-29T22:46:24.066Z,0.00
2023-03-29T22:48:51.488Z,0.00
2023-03-29T22:51:18.794Z,0.10
2023-03-29T22:53:47.293Z,0.00
2023-03-29T22:56:15.778Z,0.10
2023-03-29T22:58:42.928Z,0.00
2023-03-29T23:01:09.800Z,0.00
2023-03-29T23:03:37.020Z,0.05
2023-03-29T23:06:04.353Z,0.00
2023-03-29T23:08:32.780Z,0.00
2023-03-29T23:11:00.260Z,0.10
2023-03-29T23:13:29.266Z,0.00
2023-03-29T23:15:59.329Z,0.00
2023-03-29T23:18:28.601Z,0.05
2023-03-29T23:20:57.240Z,0.00
2023-03-29T23:23:25.756Z,0.03
2023-03-29T23:25:53.689Z,0.10
2023-03-29T23:28:23.794Z,0.10
2023-03-29T23:31:03.252Z,0.00
2023-03-29T23:33:33.784Z,0.00
2023-03-29T23:36:03.834Z,0.10
2023-03-29T23:38:34.940Z,0.00
2023-03-29T23:41:04.287Z,0.00
2023-03-29T23:43:33.794Z,0.10
2023-03-29T23:46:05.840Z,0.00
2023-03-29T23:48:32.918Z,0.00
2023-03-29T23:51:00.210Z,0.00
2023-03-29T23:53:29.060Z,0.00
2023-03-29T23:56:00.633Z,0.00
2023-03-29T23:58:28.578Z,0.00
